sensor_id;sensor_type;location;lat;lon;timestamp;temperature;humidity
35111;DHT22;21290;50.158;8.658;2022-09-03T00:02:40;15.60;76.90
35111;DHT22;21290;50.158;8.658;2022-09-03T00:08:09;15.50;77.70
35111;DHT22;21290;50.158;8.658;2022-09-03T00:10:42;15.50;77.80
35111;DHT22;21290;50.158;8.658;2022-09-03T00:13:15;15.50;77.90
35111;DHT22;21290;50.158;8.658;2022-09-03T00:15:45;15.50;78.30
35111;DHT22;21290;50.158;8.658;2022-09-03T00:18:19;15.40;78.60
35111;DHT22;21290;50.158;8.658;2022-09-03T00:20:54;15.40;78.80
35111;DHT22;21290;50.158;8.658;2022-09-03T00:23:27;15.40;79.30
35111;DHT22;21290;50.158;8.658;2022-09-03T00:28:49;15.30;79.70
35111;DHT22;21290;50.158;8.658;2022-09-03T00:31:21;15.30;80.00
35111;DHT22;21290;50.158;8.658;2022-09-03T00:33:57;15.30;80.00
35111;DHT22;21290;50.158;8.658;2022-09-03T00:36:32;15.30;80.30
35111;DHT22;21290;50.158;8.658;2022-09-03T00:38:59;15.20;80.50
35111;DHT22;21290;50.158;8.658;2022-09-03T00:41:38;15.30;80.70
35111;DHT22;21290;50.158;8.658;2022-09-03T00:47:03;15.20;81.00
35111;DHT22;21290;50.158;8.658;2022-09-03T00:49:51;15.10;81.40
35111;DHT22;21290;50.158;8.658;2022-09-03T00:52:53;15.10;81.60
35111;DHT22;21290;50.158;8.658;2022-09-03T00:56:07;15.10;82.40
35111;DHT22;21290;50.158;8.658;2022-09-03T00:59:01;15.10;82.40
35111;DHT22;21290;50.158;8.658;2022-09-03T01:01:39;15.00;83.00
35111;DHT22;21290;50.158;8.658;2022-09-03T01:04:21;15.00;83.20
35111;DHT22;21290;50.158;8.658;2022-09-03T01:07:04;14.90;83.50
35111;DHT22;21290;50.158;8.658;2022-09-03T01:12:14;14.90;84.40
35111;DHT22;21290;50.158;8.658;2022-09-03T01:15:06;14.80;84.90
35111;DHT22;21290;50.158;8.658;2022-09-03T01:26:38;14.70;87.00
35111;DHT22;21290;50.158;8.658;2022-09-03T01:32:24;14.70;87.90
35111;DHT22;21290;50.158;8.658;2022-09-03T01:35:01;14.70;88.40
35111;DHT22;21290;50.158;8.658;2022-09-03T01:37:40;14.70;88.60
35111;DHT22;21290;50.158;8.658;2022-09-03T01:40:27;14.70;88.70
35111;DHT22;21290;50.158;8.658;2022-09-03T01:43:18;14.70;89.40
35111;DHT22;21290;50.158;8.658;2022-09-03T01:45:59;14.70;89.60
35111;DHT22;21290;50.158;8.658;2022-09-03T01:48:43;14.70;90.10
35111;DHT22;21290;50.158;8.658;2022-09-03T01:51:22;14.70;90.20
35111;DHT22;21290;50.158;8.658;2022-09-03T01:54:15;14.70;90.40
35111;DHT22;21290;50.158;8.658;2022-09-03T01:57:08;14.60;90.80
35111;DHT22;21290;50.158;8.658;2022-09-03T02:00:17;14.60;91.00
35111;DHT22;21290;50.158;8.658;2022-09-03T02:02:48;14.70;91.00
35111;DHT22;21290;50.158;8.658;2022-09-03T02:05:22;14.70;91.00
35111;DHT22;21290;50.158;8.658;2022-09-03T02:08:00;14.80;91.10
35111;DHT22;21290;50.158;8.658;2022-09-03T02:13:09;14.80;91.40
35111;DHT22;21290;50.158;8.658;2022-09-03T02:15:38;14.80;91.40
35111;DHT22;21290;50.158;8.658;2022-09-03T02:18:06;14.90;91.70
35111;DHT22;21290;50.158;8.658;2022-09-03T02:20:36;14.90;91.60
35111;DHT22;21290;50.158;8.658;2022-09-03T02:23:03;14.90;91.70
35111;DHT22;21290;50.158;8.658;2022-09-03T02:25:41;14.90;91.70
35111;DHT22;21290;50.158;8.658;2022-09-03T02:28:10;14.90;91.90
35111;DHT22;21290;50.158;8.658;2022-09-03T02:30:43;14.90;92.00
35111;DHT22;21290;50.158;8.658;2022-09-03T02:33:10;14.90;92.10
35111;DHT22;21290;50.158;8.658;2022-09-03T02:35:37;15.00;92.30
35111;DHT22;21290;50.158;8.658;2022-09-03T02:38:15;15.00;92.40
35111;DHT22;21290;50.158;8.658;2022-09-03T02:40:43;15.00;92.40
35111;DHT22;21290;50.158;8.658;2022-09-03T02:43:17;15.00;92.60
35111;DHT22;21290;50.158;8.658;2022-09-03T02:45:50;15.00;92.80
35111;DHT22;21290;50.158;8.658;2022-09-03T02:48:22;15.00;92.80
35111;DHT22;21290;50.158;8.658;2022-09-03T02:50:50;15.10;92.80
35111;DHT22;21290;50.158;8.658;2022-09-03T02:53:16;15.10;92.70
35111;DHT22;21290;50.158;8.658;2022-09-03T02:55:43;15.10;92.80
35111;DHT22;21290;50.158;8.658;2022-09-03T02:58:09;15.20;92.80
35111;DHT22;21290;50.158;8.658;2022-09-03T03:00:36;15.20;92.80
35111;DHT22;21290;50.158;8.658;2022-09-03T03:03:04;15.30;92.90
35111;DHT22;21290;50.158;8.658;2022-09-03T03:05:45;15.30;92.90
35111;DHT22;21290;50.158;8.658;2022-09-03T03:08:14;15.30;92.70
35111;DHT22;21290;50.158;8.658;2022-09-03T03:10:42;15.40;92.60
35111;DHT22;21290;50.158;8.658;2022-09-03T03:13:12;15.40;92.50
35111;DHT22;21290;50.158;8.658;2022-09-03T03:15:39;15.50;92.80
35111;DHT22;21290;50.158;8.658;2022-09-03T03:18:05;15.50;92.50
35111;DHT22;21290;50.158;8.658;2022-09-03T03:20:33;15.50;92.60
35111;DHT22;21290;50.158;8.658;2022-09-03T03:23:03;15.50;92.60
35111;DHT22;21290;50.158;8.658;2022-09-03T03:25:35;15.60;92.70
35111;DHT22;21290;50.158;8.658;2022-09-03T03:28:03;15.60;92.40
35111;DHT22;21290;50.158;8.658;2022-09-03T03:30:32;15.60;92.40
35111;DHT22;21290;50.158;8.658;2022-09-03T03:32:59;15.70;92.40
35111;DHT22;21290;50.158;8.658;2022-09-03T03:35:26;15.60;92.40
35111;DHT22;21290;50.158;8.658;2022-09-03T03:37:53;15.70;92.40
35111;DHT22;21290;50.158;8.658;2022-09-03T03:40:19;15.70;92.20
35111;DHT22;21290;50.158;8.658;2022-09-03T03:42:46;15.70;92.30
35111;DHT22;21290;50.158;8.658;2022-09-03T03:45:13;15.70;92.20
35111;DHT22;21290;50.158;8.658;2022-09-03T03:47:39;15.70;92.20
35111;DHT22;21290;50.158;8.658;2022-09-03T03:50:06;15.80;92.10
35111;DHT22;21290;50.158;8.658;2022-09-03T03:52:33;15.80;92.10
35111;DHT22;21290;50.158;8.658;2022-09-03T03:55:00;15.80;92.10
35111;DHT22;21290;50.158;8.658;2022-09-03T03:57:29;15.80;92.30
35111;DHT22;21290;50.158;8.658;2022-09-03T03:59:55;15.70;92.20
35111;DHT22;21290;50.158;8.658;2022-09-03T04:02:22;15.70;92.40
35111;DHT22;21290;50.158;8.658;2022-09-03T04:04:52;15.70;92.40
35111;DHT22;21290;50.158;8.658;2022-09-03T04:07:19;15.70;92.40
35111;DHT22;21290;50.158;8.658;2022-09-03T04:09:45;15.70;92.40
35111;DHT22;21290;50.158;8.658;2022-09-03T04:12:12;15.70;92.50
35111;DHT22;21290;50.158;8.658;2022-09-03T04:14:39;15.70;92.50
35111;DHT22;21290;50.158;8.658;2022-09-03T04:17:05;15.70;92.60
35111;DHT22;21290;50.158;8.658;2022-09-03T04:19:32;15.70;92.70
35111;DHT22;21290;50.158;8.658;2022-09-03T04:21:58;15.70;92.80
35111;DHT22;21290;50.158;8.658;2022-09-03T04:24:25;15.70;92.90
35111;DHT22;21290;50.158;8.658;2022-09-03T04:26:52;15.60;93.00
35111;DHT22;21290;50.158;8.658;2022-09-03T04:29:19;15.60;93.20
35111;DHT22;21290;50.158;8.658;2022-09-03T04:31:47;15.60;93.20
35111;DHT22;21290;50.158;8.658;2022-09-03T04:34:32;15.60;93.40
35111;DHT22;21290;50.158;8.658;2022-09-03T04:36:59;15.70;93.40
35111;DHT22;21290;50.158;8.658;2022-09-03T04:39:25;15.70;93.60
35111;DHT22;21290;50.158;8.658;2022-09-03T04:41:52;15.70;93.40
35111;DHT22;21290;50.158;8.658;2022-09-03T04:44:18;15.70;93.50
35111;DHT22;21290;50.158;8.658;2022-09-03T04:46:45;15.70;93.40
35111;DHT22;21290;50.158;8.658;2022-09-03T04:49:13;15.80;93.50
35111;DHT22;21290;50.158;8.658;2022-09-03T04:51:40;15.80;93.50
35111;DHT22;21290;50.158;8.658;2022-09-03T04:54:07;15.80;93.60
35111;DHT22;21290;50.158;8.658;2022-09-03T04:56:38;15.80;93.50
35111;DHT22;21290;50.158;8.658;2022-09-03T04:59:07;15.80;93.40
35111;DHT22;21290;50.158;8.658;2022-09-03T05:01:36;15.80;93.60
35111;DHT22;21290;50.158;8.658;2022-09-03T05:04:04;15.80;93.60
35111;DHT22;21290;50.158;8.658;2022-09-03T05:06:32;15.90;93.60
35111;DHT22;21290;50.158;8.658;2022-09-03T05:08:59;15.90;93.40
35111;DHT22;21290;50.158;8.658;2022-09-03T05:11:27;15.90;93.50
35111;DHT22;21290;50.158;8.658;2022-09-03T05:13:55;16.00;93.40
35111;DHT22;21290;50.158;8.658;2022-09-03T05:16:24;16.10;93.50
35111;DHT22;21290;50.158;8.658;2022-09-03T05:18:52;16.10;93.00
35111;DHT22;21290;50.158;8.658;2022-09-03T05:21:19;16.10;93.00
35111;DHT22;21290;50.158;8.658;2022-09-03T05:23:48;16.20;93.20
35111;DHT22;21290;50.158;8.658;2022-09-03T05:26:37;16.20;93.00
35111;DHT22;21290;50.158;8.658;2022-09-03T05:29:05;16.20;93.30
35111;DHT22;21290;50.158;8.658;2022-09-03T05:31:37;16.20;93.20
35111;DHT22;21290;50.158;8.658;2022-09-03T05:34:05;16.30;93.00
35111;DHT22;21290;50.158;8.658;2022-09-03T05:36:34;16.30;93.20
35111;DHT22;21290;50.158;8.658;2022-09-03T05:39:01;16.30;93.20
35111;DHT22;21290;50.158;8.658;2022-09-03T05:41:28;16.30;93.00
35111;DHT22;21290;50.158;8.658;2022-09-03T05:43:56;16.40;93.00
35111;DHT22;21290;50.158;8.658;2022-09-03T05:46:26;16.50;93.10
35111;DHT22;21290;50.158;8.658;2022-09-03T05:48:58;16.50;93.10
35111;DHT22;21290;50.158;8.658;2022-09-03T05:51:25;16.50;93.20
35111;DHT22;21290;50.158;8.658;2022-09-03T05:53:52;16.50;92.90
35111;DHT22;21290;50.158;8.658;2022-09-03T05:56:21;16.60;93.10
35111;DHT22;21290;50.158;8.658;2022-09-03T05:58:50;16.80;92.90
35111;DHT22;21290;50.158;8.658;2022-09-03T06:01:18;16.90;93.00
35111;DHT22;21290;50.158;8.658;2022-09-03T06:03:47;17.10;92.60
35111;DHT22;21290;50.158;8.658;2022-09-03T06:06:20;17.10;92.70
35111;DHT22;21290;50.158;8.658;2022-09-03T06:08:51;17.20;92.30
35111;DHT22;21290;50.158;8.658;2022-09-03T06:11:18;17.20;92.30
35111;DHT22;21290;50.158;8.658;2022-09-03T06:13:45;17.20;92.20
35111;DHT22;21290;50.158;8.658;2022-09-03T06:16:12;17.20;92.50
35111;DHT22;21290;50.158;8.658;2022-09-03T06:18:39;17.20;92.80
35111;DHT22;21290;50.158;8.658;2022-09-03T06:21:06;17.30;92.70
35111;DHT22;21290;50.158;8.658;2022-09-03T06:23:34;17.30;92.40
35111;DHT22;21290;50.158;8.658;2022-09-03T06:26:19;17.30;92.10
35111;DHT22;21290;50.158;8.658;2022-09-03T06:28:46;17.30;92.60
35111;DHT22;21290;50.158;8.658;2022-09-03T06:31:16;17.30;92.50
35111;DHT22;21290;50.158;8.658;2022-09-03T06:33:44;17.40;92.30
35111;DHT22;21290;50.158;8.658;2022-09-03T06:36:15;17.40;92.40
35111;DHT22;21290;50.158;8.658;2022-09-03T06:38:43;17.40;92.70
35111;DHT22;21290;50.158;8.658;2022-09-03T06:41:15;17.40;92.90
35111;DHT22;21290;50.158;8.658;2022-09-03T06:43:47;17.40;92.80
35111;DHT22;21290;50.158;8.658;2022-09-03T06:46:17;17.50;92.80
35111;DHT22;21290;50.158;8.658;2022-09-03T06:48:44;17.50;93.10
35111;DHT22;21290;50.158;8.658;2022-09-03T06:51:17;17.50;93.30
35111;DHT22;21290;50.158;8.658;2022-09-03T06:53:47;17.60;93.10
35111;DHT22;21290;50.158;8.658;2022-09-03T06:56:16;17.60;93.80
35111;DHT22;21290;50.158;8.658;2022-09-03T06:58:46;17.50;96.40
35111;DHT22;21290;50.158;8.658;2022-09-03T07:01:19;17.40;95.70
35111;DHT22;21290;50.158;8.658;2022-09-03T07:03:50;17.30;96.10
35111;DHT22;21290;50.158;8.658;2022-09-03T07:06:18;17.30;96.90
35111;DHT22;21290;50.158;8.658;2022-09-03T07:08:45;17.30;99.50
35111;DHT22;21290;50.158;8.658;2022-09-03T07:11:15;17.40;99.90
35111;DHT22;21290;50.158;8.658;2022-09-03T07:13:45;17.40;99.90
35111;DHT22;21290;50.158;8.658;2022-09-03T07:16:23;17.40;99.90
35111;DHT22;21290;50.158;8.658;2022-09-03T07:18:50;17.40;99.90
35111;DHT22;21290;50.158;8.658;2022-09-03T07:21:27;17.40;99.90
35111;DHT22;21290;50.158;8.658;2022-09-03T07:23:55;17.50;99.90
35111;DHT22;21290;50.158;8.658;2022-09-03T07:26:26;17.50;99.90
35111;DHT22;21290;50.158;8.658;2022-09-03T07:28:56;17.50;99.10
35111;DHT22;21290;50.158;8.658;2022-09-03T07:34:49;17.50;99.00
35111;DHT22;21290;50.158;8.658;2022-09-03T07:37:23;17.40;98.80
35111;DHT22;21290;50.158;8.658;2022-09-03T07:39:52;17.40;99.00
35111;DHT22;21290;50.158;8.658;2022-09-03T07:42:20;17.40;99.80
35111;DHT22;21290;50.158;8.658;2022-09-03T07:44:48;17.50;99.60
35111;DHT22;21290;50.158;8.658;2022-09-03T07:47:15;17.50;99.90
35111;DHT22;21290;50.158;8.658;2022-09-03T07:49:56;17.40;99.90
35111;DHT22;21290;50.158;8.658;2022-09-03T07:52:31;17.30;99.90
35111;DHT22;21290;50.158;8.658;2022-09-03T07:55:11;17.10;99.90
35111;DHT22;21290;50.158;8.658;2022-09-03T08:00:58;16.90;99.90
35111;DHT22;21290;50.158;8.658;2022-09-03T08:03:26;16.80;99.90
35111;DHT22;21290;50.158;8.658;2022-09-03T08:06:11;16.80;99.90
35111;DHT22;21290;50.158;8.658;2022-09-03T08:08:39;17.00;99.90
35111;DHT22;21290;50.158;8.658;2022-09-03T08:11:42;17.10;99.90
35111;DHT22;21290;50.158;8.658;2022-09-03T08:14:20;17.10;99.90
35111;DHT22;21290;50.158;8.658;2022-09-03T08:17:48;17.20;99.90
35111;DHT22;21290;50.158;8.658;2022-09-03T08:20:39;17.30;99.90
35111;DHT22;21290;50.158;8.658;2022-09-03T08:26:08;17.00;99.90
35111;DHT22;21290;50.158;8.658;2022-09-03T08:32:05;16.40;99.90
35111;DHT22;21290;50.158;8.658;2022-09-03T08:34:36;16.10;99.90
35111;DHT22;21290;50.158;8.658;2022-09-03T08:37:05;16.00;99.90
35111;DHT22;21290;50.158;8.658;2022-09-03T08:39:40;16.10;99.90
35111;DHT22;21290;50.158;8.658;2022-09-03T08:45:18;16.00;99.90
35111;DHT22;21290;50.158;8.658;2022-09-03T08:48:06;16.00;99.90
35111;DHT22;21290;50.158;8.658;2022-09-03T08:50:45;16.00;99.90
35111;DHT22;21290;50.158;8.658;2022-09-03T08:53:40;16.20;99.90
35111;DHT22;21290;50.158;8.658;2022-09-03T08:56:26;16.50;99.90
35111;DHT22;21290;50.158;8.658;2022-09-03T08:59:03;16.70;99.90
35111;DHT22;21290;50.158;8.658;2022-09-03T09:01:54;17.00;99.90
35111;DHT22;21290;50.158;8.658;2022-09-03T09:04:38;17.30;99.90
35111;DHT22;21290;50.158;8.658;2022-09-03T09:07:44;17.90;99.90
35111;DHT22;21290;50.158;8.658;2022-09-03T09:10:45;19.90;99.90
35111;DHT22;21290;50.158;8.658;2022-09-03T09:13:33;22.70;99.90
35111;DHT22;21290;50.158;8.658;2022-09-03T09:21:59;22.90;98.10
35111;DHT22;21290;50.158;8.658;2022-09-03T09:24:50;22.60;99.60
35111;DHT22;21290;50.158;8.658;2022-09-03T09:27:30;23.30;99.50
35111;DHT22;21290;50.158;8.658;2022-09-03T09:34:03;28.10;91.40
35111;DHT22;21290;50.158;8.658;2022-09-03T09:36:34;27.20;84.60
35111;DHT22;21290;50.158;8.658;2022-09-03T09:39:10;25.90;87.20
35111;DHT22;21290;50.158;8.658;2022-09-03T09:42:05;24.60;88.70
35111;DHT22;21290;50.158;8.658;2022-09-03T09:45:07;23.70;90.90
35111;DHT22;21290;50.158;8.658;2022-09-03T09:47:58;23.00;93.20
35111;DHT22;21290;50.158;8.658;2022-09-03T09:51:02;22.80;93.60
35111;DHT22;21290;50.158;8.658;2022-09-03T09:53:47;22.50;94.10
35111;DHT22;21290;50.158;8.658;2022-09-03T09:56:25;21.80;94.80
35111;DHT22;21290;50.158;8.658;2022-09-03T10:08:20;20.70;98.00
35111;DHT22;21290;50.158;8.658;2022-09-03T10:10:50;20.40;98.50
35111;DHT22;21290;50.158;8.658;2022-09-03T10:16:26;20.00;99.90
35111;DHT22;21290;50.158;8.658;2022-09-03T10:25:46;19.50;99.90
35111;DHT22;21290;50.158;8.658;2022-09-03T10:29:03;19.50;99.90
35111;DHT22;21290;50.158;8.658;2022-09-03T10:31:44;19.80;99.90
35111;DHT22;21290;50.158;8.658;2022-09-03T10:37:49;20.60;99.90
35111;DHT22;21290;50.158;8.658;2022-09-03T10:40:43;21.20;99.10
35111;DHT22;21290;50.158;8.658;2022-09-03T10:43:59;22.00;98.50
35111;DHT22;21290;50.158;8.658;2022-09-03T10:46:37;22.90;97.60
35111;DHT22;21290;50.158;8.658;2022-09-03T10:55:21;24.90;93.60
35111;DHT22;21290;50.158;8.658;2022-09-03T11:10:13;23.60;92.80
35111;DHT22;21290;50.158;8.658;2022-09-03T11:13:57;23.40;93.40
35111;DHT22;21290;50.158;8.658;2022-09-03T11:20:24;23.90;93.40
35111;DHT22;21290;50.158;8.658;2022-09-03T11:23:16;24.00;93.80
35111;DHT22;21290;50.158;8.658;2022-09-03T11:25:50;24.10;93.30
35111;DHT22;21290;50.158;8.658;2022-09-03T11:28:56;24.20;93.60
35111;DHT22;21290;50.158;8.658;2022-09-03T11:32:00;23.70;93.60
35111;DHT22;21290;50.158;8.658;2022-09-03T11:38:23;23.50;93.70
35111;DHT22;21290;50.158;8.658;2022-09-03T11:41:02;23.50;93.50
35111;DHT22;21290;50.158;8.658;2022-09-03T11:47:44;24.80;92.70
35111;DHT22;21290;50.158;8.658;2022-09-03T11:56:11;26.60;90.50
35111;DHT22;21290;50.158;8.658;2022-09-03T11:58:43;27.10;90.00
35111;DHT22;21290;50.158;8.658;2022-09-03T12:01:26;27.40;88.80
35111;DHT22;21290;50.158;8.658;2022-09-03T12:04:00;27.90;87.90
35111;DHT22;21290;50.158;8.658;2022-09-03T12:06:54;28.30;87.10
35111;DHT22;21290;50.158;8.658;2022-09-03T12:18:17;26.90;84.90
35111;DHT22;21290;50.158;8.658;2022-09-03T12:23:28;26.90;86.90
35111;DHT22;21290;50.158;8.658;2022-09-03T12:26:17;27.20;86.40
35111;DHT22;21290;50.158;8.658;2022-09-03T12:29:00;27.00;85.50
35111;DHT22;21290;50.158;8.658;2022-09-03T12:31:31;27.00;86.40
35111;DHT22;21290;50.158;8.658;2022-09-03T12:34:18;26.90;85.80
35111;DHT22;21290;50.158;8.658;2022-09-03T12:36:57;26.60;85.00
35111;DHT22;21290;50.158;8.658;2022-09-03T12:39:27;26.30;86.10
35111;DHT22;21290;50.158;8.658;2022-09-03T13:01:24;27.20;81.00
35111;DHT22;21290;50.158;8.658;2022-09-03T13:04:28;26.80;82.50
35111;DHT22;21290;50.158;8.658;2022-09-03T13:15:31;27.40;80.60
35111;DHT22;21290;50.158;8.658;2022-09-03T13:18:14;27.10;81.70
35111;DHT22;21290;50.158;8.658;2022-09-03T13:30:45;26.30;83.50
35111;DHT22;21290;50.158;8.658;2022-09-03T13:33:31;26.10;83.70
35111;DHT22;21290;50.158;8.658;2022-09-03T13:36:15;26.10;83.40
35111;DHT22;21290;50.158;8.658;2022-09-03T13:38:59;25.80;84.00
35111;DHT22;21290;50.158;8.658;2022-09-03T13:42:09;25.50;84.60
35111;DHT22;21290;50.158;8.658;2022-09-03T13:45:15;25.50;86.10
35111;DHT22;21290;50.158;8.658;2022-09-03T13:48:01;25.60;85.40
35111;DHT22;21290;50.158;8.658;2022-09-03T13:54:22;25.40;85.60
35111;DHT22;21290;50.158;8.658;2022-09-03T13:57:44;25.40;86.30
35111;DHT22;21290;50.158;8.658;2022-09-03T14:07:27;25.50;85.50
35111;DHT22;21290;50.158;8.658;2022-09-03T14:24:43;24.90;86.80
35111;DHT22;21290;50.158;8.658;2022-09-03T14:27:37;24.60;88.10
35111;DHT22;21290;50.158;8.658;2022-09-03T14:36:48;25.10;87.90
35111;DHT22;21290;50.158;8.658;2022-09-03T14:39:58;25.10;87.20
35111;DHT22;21290;50.158;8.658;2022-09-03T14:45:47;25.00;87.20
35111;DHT22;21290;50.158;8.658;2022-09-03T14:48:59;24.90;87.40
35111;DHT22;21290;50.158;8.658;2022-09-03T15:01:11;24.20;89.60
35111;DHT22;21290;50.158;8.658;2022-09-03T15:09:26;24.20;90.40
35111;DHT22;21290;50.158;8.658;2022-09-03T15:12:29;24.40;90.20
35111;DHT22;21290;50.158;8.658;2022-09-03T15:15:16;24.70;89.40
35111;DHT22;21290;50.158;8.658;2022-09-03T15:18:02;24.80;89.00
35111;DHT22;21290;50.158;8.658;2022-09-03T15:21:00;24.80;89.30
35111;DHT22;21290;50.158;8.658;2022-09-03T15:27:03;24.70;90.00
35111;DHT22;21290;50.158;8.658;2022-09-03T15:30:07;24.90;90.00
35111;DHT22;21290;50.158;8.658;2022-09-03T15:38:34;25.40;88.90
35111;DHT22;21290;50.158;8.658;2022-09-03T15:43:58;24.80;89.90
35111;DHT22;21290;50.158;8.658;2022-09-03T15:46:34;24.50;90.50
35111;DHT22;21290;50.158;8.658;2022-09-03T15:49:07;24.30;90.60
35111;DHT22;21290;50.158;8.658;2022-09-03T15:51:55;24.30;91.20
35111;DHT22;21290;50.158;8.658;2022-09-03T15:57:38;24.40;91.20
35111;DHT22;21290;50.158;8.658;2022-09-03T16:00:16;24.40;91.20
35111;DHT22;21290;50.158;8.658;2022-09-03T16:02:58;24.20;91.40
35111;DHT22;21290;50.158;8.658;2022-09-03T16:05:53;24.20;91.70
35111;DHT22;21290;50.158;8.658;2022-09-03T16:08:26;24.10;91.80
35111;DHT22;21290;50.158;8.658;2022-09-03T16:11:15;24.00;91.90
35111;DHT22;21290;50.158;8.658;2022-09-03T16:14:30;23.90;92.20
35111;DHT22;21290;50.158;8.658;2022-09-03T16:17:27;23.80;92.40
35111;DHT22;21290;50.158;8.658;2022-09-03T16:20:06;23.70;92.80
35111;DHT22;21290;50.158;8.658;2022-09-03T16:22:50;23.60;92.90
35111;DHT22;21290;50.158;8.658;2022-09-03T16:25:34;23.60;93.10
35111;DHT22;21290;50.158;8.658;2022-09-03T16:28:31;23.60;93.20
35111;DHT22;21290;50.158;8.658;2022-09-03T16:31:14;23.60;93.30
35111;DHT22;21290;50.158;8.658;2022-09-03T16:34:06;23.50;93.50
35111;DHT22;21290;50.158;8.658;2022-09-03T16:36:54;23.40;93.70
35111;DHT22;21290;50.158;8.658;2022-09-03T16:45:04;23.20;94.30
35111;DHT22;21290;50.158;8.658;2022-09-03T16:50:25;22.90;95.00
35111;DHT22;21290;50.158;8.658;2022-09-03T17:04:11;22.50;96.40
35111;DHT22;21290;50.158;8.658;2022-09-03T17:09:50;22.40;97.00
35111;DHT22;21290;50.158;8.658;2022-09-03T17:12:50;22.40;97.10
35111;DHT22;21290;50.158;8.658;2022-09-03T17:24:43;22.20;98.20
35111;DHT22;21290;50.158;8.658;2022-09-03T17:27:00;22.20;98.40
35111;DHT22;21290;50.158;8.658;2022-09-03T17:30:02;22.10;98.70
35111;DHT22;21290;50.158;8.658;2022-09-03T17:33:18;22.00;99.00
35111;DHT22;21290;50.158;8.658;2022-09-03T17:36:06;21.80;99.40
35111;DHT22;21290;50.158;8.658;2022-09-03T17:49:47;20.90;99.90
35111;DHT22;21290;50.158;8.658;2022-09-03T17:55:01;20.70;99.90
35111;DHT22;21290;50.158;8.658;2022-09-03T17:57:49;20.60;99.90
35111;DHT22;21290;50.158;8.658;2022-09-03T18:00:34;20.50;99.90
35111;DHT22;21290;50.158;8.658;2022-09-03T18:03:23;20.50;99.90
35111;DHT22;21290;50.158;8.658;2022-09-03T18:05:56;20.40;99.90
35111;DHT22;21290;50.158;8.658;2022-09-03T18:11:13;20.30;99.90
35111;DHT22;21290;50.158;8.658;2022-09-03T18:16:46;20.20;99.90
35111;DHT22;21290;50.158;8.658;2022-09-03T18:19:34;20.10;99.90
35111;DHT22;21290;50.158;8.658;2022-09-03T18:22:24;20.00;99.90
35111;DHT22;21290;50.158;8.658;2022-09-03T18:25:13;20.00;99.90
35111;DHT22;21290;50.158;8.658;2022-09-03T18:28:08;19.90;99.90
35111;DHT22;21290;50.158;8.658;2022-09-03T18:30:54;19.80;99.90
35111;DHT22;21290;50.158;8.658;2022-09-03T18:33:40;19.80;99.90
35111;DHT22;21290;50.158;8.658;2022-09-03T18:36:25;19.80;99.90
35111;DHT22;21290;50.158;8.658;2022-09-03T18:39:22;19.80;99.90
35111;DHT22;21290;50.158;8.658;2022-09-03T18:42:41;19.70;99.90
35111;DHT22;21290;50.158;8.658;2022-09-03T18:45:31;19.70;99.90
35111;DHT22;21290;50.158;8.658;2022-09-03T18:49:06;19.70;99.90
35111;DHT22;21290;50.158;8.658;2022-09-03T18:52:20;19.70;99.90
35111;DHT22;21290;50.158;8.658;2022-09-03T18:55:37;19.70;99.90
35111;DHT22;21290;50.158;8.658;2022-09-03T19:01:40;19.50;99.90
35111;DHT22;21290;50.158;8.658;2022-09-03T19:07:33;19.40;99.90
35111;DHT22;21290;50.158;8.658;2022-09-03T19:13:35;19.30;99.90
35111;DHT22;21290;50.158;8.658;2022-09-03T19:22:33;19.10;99.90
35111;DHT22;21290;50.158;8.658;2022-09-03T19:25:19;19.10;99.90
35111;DHT22;21290;50.158;8.658;2022-09-03T19:37:22;18.80;99.90
35111;DHT22;21290;50.158;8.658;2022-09-03T19:46:09;18.70;99.90
35111;DHT22;21290;50.158;8.658;2022-09-03T19:49:18;18.60;99.90
35111;DHT22;21290;50.158;8.658;2022-09-03T19:52:20;18.60;99.90
35111;DHT22;21290;50.158;8.658;2022-09-03T19:55:07;18.50;99.90
35111;DHT22;21290;50.158;8.658;2022-09-03T19:57:59;18.50;99.90
35111;DHT22;21290;50.158;8.658;2022-09-03T20:01:05;18.40;99.90
35111;DHT22;21290;50.158;8.658;2022-09-03T20:03:50;18.50;99.90
35111;DHT22;21290;50.158;8.658;2022-09-03T20:06:37;18.40;99.90
35111;DHT22;21290;50.158;8.658;2022-09-03T20:09:27;18.40;99.90
35111;DHT22;21290;50.158;8.658;2022-09-03T20:12:15;18.30;99.90
35111;DHT22;21290;50.158;8.658;2022-09-03T20:14:42;18.30;99.90
35111;DHT22;21290;50.158;8.658;2022-09-03T20:17:34;18.20;99.90
35111;DHT22;21290;50.158;8.658;2022-09-03T20:20:25;18.10;99.90
35111;DHT22;21290;50.158;8.658;2022-09-03T20:23:05;18.00;99.90
35111;DHT22;21290;50.158;8.658;2022-09-03T20:25:56;18.00;99.90
35111;DHT22;21290;50.158;8.658;2022-09-03T20:28:42;17.90;99.90
35111;DHT22;21290;50.158;8.658;2022-09-03T20:31:23;17.90;99.90
35111;DHT22;21290;50.158;8.658;2022-09-03T20:39:11;17.80;99.90
35111;DHT22;21290;50.158;8.658;2022-09-03T20:56:32;17.50;99.90
35111;DHT22;21290;50.158;8.658;2022-09-03T20:59:14;17.50;99.90
35111;DHT22;21290;50.158;8.658;2022-09-03T21:01:56;17.50;99.90
35111;DHT22;21290;50.158;8.658;2022-09-03T21:04:47;17.40;99.90
35111;DHT22;21290;50.158;8.658;2022-09-03T21:15:44;17.30;99.90
35111;DHT22;21290;50.158;8.658;2022-09-03T21:23:39;17.20;99.90
35111;DHT22;21290;50.158;8.658;2022-09-03T21:34:40;17.20;99.90
35111;DHT22;21290;50.158;8.658;2022-09-03T21:37:11;17.20;99.90
35111;DHT22;21290;50.158;8.658;2022-09-03T21:39:45;17.20;99.90
35111;DHT22;21290;50.158;8.658;2022-09-03T21:42:26;17.10;99.90
35111;DHT22;21290;50.158;8.658;2022-09-03T21:45:03;17.10;99.90
35111;DHT22;21290;50.158;8.658;2022-09-03T21:47:38;17.10;99.90
35111;DHT22;21290;50.158;8.658;2022-09-03T21:50:30;17.00;99.90
35111;DHT22;21290;50.158;8.658;2022-09-03T21:53:08;17.00;99.90
35111;DHT22;21290;50.158;8.658;2022-09-03T21:55:49;17.00;99.90
35111;DHT22;21290;50.158;8.658;2022-09-03T21:58:24;17.00;99.90
35111;DHT22;21290;50.158;8.658;2022-09-03T22:00:56;16.90;99.90
35111;DHT22;21290;50.158;8.658;2022-09-03T22:03:27;16.90;99.90
35111;DHT22;21290;50.158;8.658;2022-09-03T22:06:02;16.80;99.90
35111;DHT22;21290;50.158;8.658;2022-09-03T22:08:41;16.80;99.90
35111;DHT22;21290;50.158;8.658;2022-09-03T22:11:34;16.80;99.90
35111;DHT22;21290;50.158;8.658;2022-09-03T22:14:12;16.70;99.90
35111;DHT22;21290;50.158;8.658;2022-09-03T22:16:52;16.70;99.90
35111;DHT22;21290;50.158;8.658;2022-09-03T22:19:21;16.80;99.90
35111;DHT22;21290;50.158;8.658;2022-09-03T22:21:57;16.80;99.90
35111;DHT22;21290;50.158;8.658;2022-09-03T22:27:29;16.80;99.90
35111;DHT22;21290;50.158;8.658;2022-09-03T22:30:15;16.80;99.90
35111;DHT22;21290;50.158;8.658;2022-09-03T22:33:13;16.70;99.90
35111;DHT22;21290;50.158;8.658;2022-09-03T22:38:51;16.70;99.90
35111;DHT22;21290;50.158;8.658;2022-09-03T22:52:43;16.50;99.90